createdAt,value
2023-01-13T00:01:07.700Z,73.24
2023-01-13T00:05:10.918Z,72.94
2023-01-13T00:09:13.622Z,73.18
2023-01-13T00:13:16.555Z,73.77
2023-01-13T00:17:20.731Z,74.00
2023-01-13T00:21:25.277Z,73.98
2023-01-13T00:25:28.250Z,74.02
2023-01-13T00:29:31.040Z,74.38
2023-01-13T00:33:35.589Z,74.27
2023-01-13T00:37:39.430Z,74.80
2023-01-13T00:41:59.754Z,74.38
2023-01-13T00:46:03.221Z,74.66
2023-01-13T00:50:07.940Z,74.65
2023-01-13T00:54:10.799Z,74.71
2023-01-13T00:58:13.555Z,74.34
2023-01-13T01:02:16.552Z,74.16
2023-01-13T01:06:22.535Z,74.00
2023-01-13T01:10:25.309Z,74.12
2023-01-13T01:14:28.479Z,73.83
2023-01-13T01:18:31.302Z,74.13
2023-01-13T01:22:35.432Z,73.93
2023-01-13T01:26:38.208Z,73.51
2023-01-13T01:30:40.987Z,73.89
2023-01-13T01:34:43.741Z,73.88
2023-01-13T01:38:48.203Z,73.61
2023-01-13T01:43:08.805Z,73.63
2023-01-13T01:47:15.332Z,73.61
2023-01-13T01:51:18.215Z,73.25
2023-01-13T01:55:25.063Z,72.81
2023-01-13T01:59:31.138Z,73.00
2023-01-13T02:03:36.507Z,73.27
2023-01-13T02:07:41.195Z,73.08
2023-01-13T02:12:03.038Z,72.51
2023-01-13T02:16:18.886Z,72.86
2023-01-13T02:21:00.314Z,72.49
2023-01-13T02:25:21.867Z,72.75
2023-01-13T02:30:09.050Z,72.96
2023-01-13T02:34:15.913Z,72.43
2023-01-13T02:38:24.490Z,72.04
2023-01-13T02:42:52.504Z,71.43
2023-01-13T02:47:02.095Z,71.68
2023-01-13T02:51:09.711Z,71.39
2023-01-13T02:55:17.917Z,71.36
2023-01-13T02:59:21.576Z,71.52
2023-01-13T03:03:25.961Z,71.81
2023-01-13T03:07:58.219Z,71.29
2023-01-13T03:12:11.483Z,71.02
2023-01-13T03:16:24.295Z,70.80
2023-01-13T03:20:34.142Z,71.14
2023-01-13T03:24:40.368Z,70.46
2023-01-13T03:28:49.462Z,70.44
2023-01-13T03:32:56.928Z,70.13
2023-01-13T03:37:04.787Z,69.63
2023-01-13T03:41:12.899Z,69.69
2023-01-13T03:45:18.905Z,70.06
2023-01-13T03:49:24.999Z,69.40
2023-01-13T03:53:32.440Z,69.54
2023-01-13T03:57:39.443Z,69.41
2023-01-13T04:01:49.504Z,68.74
2023-01-13T04:05:56.486Z,68.47
2023-01-13T04:10:03.722Z,68.51
2023-01-13T04:14:10.620Z,68.03
2023-01-13T04:18:16.415Z,67.91
2023-01-13T04:22:19.000Z,68.73
2023-01-13T04:26:23.478Z,68.03
2023-01-13T04:30:26.139Z,67.55
2023-01-13T04:34:28.750Z,67.44
2023-01-13T04:38:31.345Z,67.50
2023-01-13T04:42:35.476Z,66.50
2023-01-13T04:46:38.124Z,66.35
2023-01-13T04:50:41.157Z,66.94
2023-01-13T04:54:43.775Z,67.03
2023-01-13T04:58:47.703Z,67.08
2023-01-13T05:02:50.811Z,66.89
2023-01-13T05:06:53.514Z,66.14
2023-01-13T05:10:56.137Z,66.06
2023-01-13T05:15:17.767Z,66.61
2023-01-13T05:19:20.372Z,65.55
2023-01-13T05:23:40.817Z,65.31
2023-01-13T05:27:43.408Z,64.66
2023-01-13T05:31:47.384Z,64.59
2023-01-13T05:35:50.198Z,64.35
2023-01-13T05:40:10.571Z,64.15
2023-01-13T05:44:13.277Z,63.62
2023-01-13T05:48:18.304Z,64.00
2023-01-13T05:52:20.919Z,63.76
2023-01-13T05:56:23.544Z,63.47
2023-01-13T06:00:26.272Z,62.89
2023-01-13T06:04:30.260Z,63.02
2023-01-13T06:08:33.388Z,63.16
2023-01-13T06:12:37.313Z,63.09
2023-01-13T06:16:39.908Z,63.82
2023-01-13T06:20:44.061Z,63.10
2023-01-13T06:24:47.197Z,63.43
2023-01-13T06:28:50.085Z,62.92
2023-01-13T06:32:56.283Z,62.65
2023-01-13T06:37:00.348Z,63.29
2023-01-13T06:41:03.366Z,63.74
2023-01-13T06:45:06.787Z,63.71
2023-01-13T06:49:09.737Z,64.16
2023-01-13T06:53:13.660Z,64.03
2023-01-13T06:57:16.313Z,64.23
2023-01-13T07:01:18.967Z,64.13
2023-01-13T07:05:22.384Z,64.40
2023-01-13T07:09:26.311Z,64.49
2023-01-13T07:13:46.731Z,64.25
2023-01-13T07:17:49.316Z,63.92
2023-01-13T07:21:52.700Z,64.40
2023-01-13T07:25:57.522Z,64.55
2023-01-13T07:30:00.232Z,64.41
2023-01-13T07:34:06.089Z,64.72
2023-01-13T07:38:09.263Z,64.18
2023-01-13T07:42:30.618Z,64.49
2023-01-13T07:46:33.835Z,64.67
2023-01-13T07:50:36.520Z,64.72
2023-01-13T07:54:41.111Z,65.00
2023-01-13T07:58:50.260Z,65.00
2023-01-13T08:02:52.917Z,64.89
2023-01-13T08:06:55.598Z,65.16
2023-01-13T08:11:00.177Z,65.44
2023-01-13T08:15:04.818Z,65.64
2023-01-13T08:19:08.245Z,65.63
2023-01-13T08:23:10.838Z,65.20
2023-01-13T08:27:13.467Z,65.55
2023-01-13T08:31:20.431Z,65.31
2023-01-13T08:35:23.732Z,65.55
2023-01-13T09:02:03.435Z,66.39
2023-01-13T09:06:06.903Z,66.65
2023-01-13T09:10:11.193Z,66.43
2023-01-13T09:14:18.398Z,67.03
2023-01-13T09:18:20.998Z,67.27
2023-01-13T09:22:26.967Z,67.19
2023-01-13T09:26:29.579Z,67.77
2023-01-13T09:30:34.199Z,67.60
2023-01-13T09:34:55.195Z,67.55
2023-01-13T09:38:57.783Z,67.63
2023-01-13T09:43:24.193Z,67.54
2023-01-13T09:47:34.201Z,67.89
2023-01-13T09:51:42.497Z,67.56
2023-01-13T09:55:45.627Z,67.49
2023-01-13T09:59:49.223Z,67.61
2023-01-13T10:03:53.743Z,67.17
2023-01-13T10:08:04.636Z,67.04
2023-01-13T10:12:33.142Z,66.87
2023-01-13T10:32:04.894Z,63.41
2023-01-13T10:36:15.588Z,61.52
2023-01-13T10:40:19.484Z,61.57
2023-01-13T10:44:22.036Z,61.96
2023-01-13T10:48:34.202Z,62.43
2023-01-13T10:52:42.746Z,63.20
2023-01-13T10:56:46.757Z,62.65
2023-01-13T11:00:59.330Z,63.38
2023-01-13T11:05:16.057Z,63.73
2023-01-13T11:09:22.490Z,64.26
2023-01-13T11:13:32.211Z,64.94
2023-01-13T11:17:40.793Z,66.39
2023-01-13T11:21:52.144Z,67.27
2023-01-13T11:26:00.171Z,69.19
2023-01-13T11:30:11.013Z,68.95
2023-01-13T11:34:26.274Z,68.61
2023-01-13T11:38:38.869Z,67.85
2023-01-13T11:42:44.380Z,68.78
2023-01-13T11:46:49.171Z,68.60
2023-01-13T11:50:58.281Z,69.32
2023-01-13T11:55:15.616Z,72.42
2023-01-13T11:59:36.986Z,75.80
2023-01-13T12:03:42.917Z,78.67
2023-01-13T12:07:56.146Z,78.99
2023-01-13T12:12:22.944Z,81.90
2023-01-13T12:16:27.769Z,83.50
2023-01-13T12:20:36.913Z,82.94
2023-01-13T12:24:46.667Z,83.39
2023-01-13T12:28:57.111Z,83.48
2023-01-13T12:33:14.657Z,83.66
2023-01-13T12:37:27.246Z,84.05
2023-01-13T12:42:01.231Z,84.32
2023-01-13T12:46:44.605Z,85.19
2023-01-13T12:51:00.593Z,85.26
2023-01-13T12:55:20.046Z,85.72
2023-01-13T12:59:48.833Z,85.59
2023-01-13T13:04:12.084Z,85.80
2023-01-13T13:08:36.958Z,86.04
2023-01-13T13:13:16.093Z,85.92
2023-01-13T13:17:44.925Z,85.36
2023-01-13T13:22:37.389Z,85.70
2023-01-13T13:26:45.771Z,86.28
2023-01-13T13:31:18.197Z,85.74
2023-01-13T13:35:41.741Z,85.32
2023-01-13T13:40:03.573Z,84.74
2023-01-13T13:44:33.866Z,84.33
2023-01-13T13:48:37.320Z,84.16
2023-01-13T13:52:42.843Z,83.60
2023-01-13T13:56:48.970Z,84.16
2023-01-13T14:00:52.283Z,84.91
2023-01-13T14:05:08.161Z,85.03
2023-01-13T14:09:17.897Z,85.40
2023-01-13T14:13:23.939Z,85.04
2023-01-13T14:17:28.972Z,85.30
2023-01-13T14:21:32.087Z,85.06
2023-01-13T14:25:39.683Z,85.74
2023-01-13T14:29:44.237Z,85.75
2023-01-13T14:33:49.882Z,85.66
2023-01-13T14:38:01.820Z,86.07
2023-01-13T14:42:05.099Z,86.92
2023-01-13T14:46:09.271Z,86.59
2023-01-13T14:50:20.961Z,86.17
2023-01-13T14:54:45.264Z,86.09
2023-01-13T14:58:49.202Z,85.91
2023-01-13T15:03:07.566Z,86.19
2023-01-13T15:07:21.564Z,86.47
2023-01-13T15:11:28.207Z,85.97
2023-01-13T15:15:33.723Z,85.89
2023-01-13T15:19:37.691Z,86.32
2023-01-13T15:23:41.206Z,85.83
2023-01-13T15:27:46.018Z,84.77
2023-01-13T15:31:48.652Z,85.47
2023-01-13T15:35:54.110Z,84.86
2023-01-13T15:39:56.736Z,85.49
2023-01-13T15:44:17.204Z,85.03
2023-01-13T15:48:21.539Z,85.55
2023-01-13T15:52:27.930Z,86.23
2023-01-13T15:56:30.546Z,86.28
2023-01-13T16:00:33.955Z,85.99
2023-01-13T16:04:36.612Z,84.95
2023-01-13T16:08:40.647Z,84.67
2023-01-13T16:12:43.394Z,84.08
2023-01-13T16:16:46.044Z,84.10
2023-01-13T16:20:52.943Z,83.18
2023-01-13T16:24:56.976Z,83.99
2023-01-13T16:29:00.134Z,84.46
2023-01-13T16:33:03.314Z,84.83
2023-01-13T16:37:07.657Z,84.95
2023-01-13T16:41:11.720Z,85.24
2023-01-13T16:45:14.381Z,84.35
2023-01-13T16:49:17.618Z,84.41
2023-01-13T16:53:20.222Z,84.35
2023-01-13T16:57:24.184Z,84.59
2023-01-13T17:01:29.263Z,84.52
2023-01-13T17:05:31.953Z,85.17
2023-01-13T17:09:35.049Z,85.48
2023-01-13T17:13:39.032Z,85.05
2023-01-13T17:17:43.977Z,84.88
2023-01-13T17:21:47.389Z,84.18
2023-01-13T17:25:49.998Z,84.33
2023-01-13T17:29:54.078Z,83.45
2023-01-13T17:33:56.775Z,83.25
2023-01-13T17:37:59.381Z,83.09
2023-01-13T17:42:02.509Z,83.05
2023-01-13T17:46:10.182Z,83.19
2023-01-13T17:50:12.824Z,82.99
2023-01-13T17:54:16.107Z,82.61
2023-01-13T17:58:18.818Z,83.31
2023-01-13T18:02:22.946Z,82.88
2023-01-13T18:06:25.956Z,82.93
2023-01-13T18:10:28.583Z,82.79
2023-01-13T18:14:31.307Z,82.83
2023-01-13T18:18:35.916Z,83.16
2023-01-13T18:22:56.034Z,82.66
2023-01-13T18:27:16.747Z,83.11
2023-01-13T18:31:19.905Z,83.27
2023-01-13T18:35:23.875Z,83.39
2023-01-13T18:39:26.610Z,83.45
2023-01-13T18:43:29.279Z,83.91
2023-01-13T18:47:33.433Z,83.65
2023-01-13T18:51:37.446Z,83.94
2023-01-13T18:55:40.076Z,91.58
2023-01-13T18:59:42.719Z,89.01
2023-01-13T19:03:45.374Z,83.29
2023-01-13T19:07:51.738Z,83.37
2023-01-13T19:11:55.040Z,83.26
2023-01-13T19:15:57.805Z,83.68
2023-01-13T19:20:00.719Z,83.85
2023-01-13T19:24:04.959Z,84.33
2023-01-13T19:28:07.628Z,84.50
2023-01-13T19:32:11.309Z,84.84
2023-01-13T19:36:13.992Z,85.25
2023-01-13T19:40:18.284Z,85.38
2023-01-13T19:44:38.169Z,85.44
2023-01-13T19:48:42.927Z,85.63
2023-01-13T19:52:45.881Z,85.83
2023-01-13T19:56:50.132Z,85.78
2023-01-13T20:00:53.762Z,85.49
2023-01-13T20:04:56.938Z,85.84
2023-01-13T20:08:59.987Z,85.70
2023-01-13T20:13:04.830Z,85.61
2023-01-13T20:17:07.767Z,85.64
2023-01-13T20:21:10.674Z,85.60
2023-01-13T20:25:16.829Z,85.62
2023-01-13T20:29:21.052Z,85.43
2023-01-13T20:33:23.847Z,85.72
2023-01-13T20:37:26.843Z,85.45
2023-01-13T20:41:47.340Z,85.67
2023-01-13T20:45:51.304Z,85.36
2023-01-13T20:49:54.420Z,85.27
2023-01-13T20:53:57.444Z,85.26
2023-01-13T20:58:00.258Z,85.13
2023-01-13T21:02:04.910Z,85.53
2023-01-13T21:06:08.841Z,85.31
2023-01-13T21:10:12.388Z,85.71
2023-01-13T21:14:33.890Z,85.26
2023-01-13T21:18:55.214Z,84.75
2023-01-13T21:22:57.859Z,84.92
2023-01-13T21:27:00.495Z,84.74
2023-01-13T21:31:04.140Z,84.67
2023-01-13T21:35:09.142Z,84.59
2023-01-13T21:39:14.135Z,84.56
2023-01-13T21:43:34.362Z,84.38
2023-01-13T21:47:52.195Z,84.58
2023-01-13T21:51:56.223Z,84.58
2023-01-13T21:55:58.888Z,84.73
2023-01-13T22:00:01.801Z,84.57
2023-01-13T22:04:13.683Z,84.97
2023-01-13T22:08:17.731Z,85.21
2023-01-13T22:12:23.378Z,85.34
2023-01-13T22:16:26.586Z,85.25
2023-01-13T22:20:29.253Z,85.47
2023-01-13T22:24:33.229Z,85.52
2023-01-13T22:28:40.762Z,85.69
2023-01-13T22:32:43.556Z,85.27
2023-01-13T22:36:46.255Z,85.19
2023-01-13T22:40:58.076Z,85.78
2023-01-13T22:45:00.735Z,85.59
2023-01-13T22:49:03.467Z,85.29
2023-01-13T22:53:06.076Z,85.28
2023-01-13T22:57:10.388Z,85.19
2023-01-13T23:01:14.829Z,84.50
2023-01-13T23:05:17.656Z,83.83
2023-01-13T23:09:20.332Z,83.68
2023-01-13T23:13:24.308Z,83.63
2023-01-13T23:17:26.940Z,83.92
2023-01-13T23:21:31.536Z,83.52
2023-01-13T23:25:34.139Z,83.71
2023-01-13T23:29:38.143Z,83.26
2023-01-13T23:33:43.351Z,82.72
2023-01-13T23:37:45.997Z,82.42
2023-01-13T23:41:48.627Z,81.93
2023-01-13T23:45:52.794Z,82.12
2023-01-13T23:49:55.435Z,81.67
2023-01-13T23:53:59.718Z,80.77
2023-01-13T23:58:02.369Z,80.58
